createdAt,value
2023-05-01T00:00:14.989Z,72.48
2023-05-01T00:01:14.972Z,72.48
2023-05-01T00:02:16.441Z,72.38
2023-05-01T00:03:15.016Z,72.58
2023-05-01T00:04:15.188Z,72.69
2023-05-01T00:05:14.887Z,72.89
2023-05-01T00:06:14.916Z,72.99
2023-05-01T00:07:15.892Z,73.23
2023-05-01T00:08:14.891Z,73.44
2023-05-01T00:09:14.850Z,73.44
2023-05-01T00:10:14.860Z,73.33
2023-05-01T00:11:14.844Z,73.33
2023-05-01T00:12:14.842Z,73.23
2023-05-01T00:13:14.846Z,73.33
2023-05-01T00:14:14.798Z,73.44
2023-05-01T00:15:14.810Z,73.54
2023-05-01T00:16:14.802Z,73.68
2023-05-01T00:17:15.714Z,73.77
2023-05-01T00:18:14.810Z,73.88
2023-05-01T00:19:14.748Z,74.18
2023-05-01T00:20:14.865Z,74.29
2023-05-01T00:21:14.747Z,74.39
2023-05-01T00:22:14.713Z,74.59
2023-05-01T00:23:16.155Z,74.69
2023-05-01T00:24:14.674Z,74.93
2023-05-01T00:25:14.707Z,75.24
2023-05-01T00:26:14.660Z,75.65
2023-05-01T00:27:14.647Z,75.96
2023-05-01T00:28:14.646Z,76.16
2023-05-01T00:29:14.617Z,76.37
2023-05-01T00:30:14.637Z,76.57
2023-05-01T00:31:14.663Z,76.67
2023-05-01T00:32:14.640Z,76.67
2023-05-01T00:33:14.579Z,76.78
2023-05-01T00:34:14.580Z,76.88
2023-05-01T00:35:15.038Z,76.88
2023-05-01T00:36:14.553Z,77.01
2023-05-01T00:37:14.558Z,77.22
2023-05-01T00:38:14.537Z,77.32
2023-05-01T00:39:14.515Z,77.32
2023-05-01T00:40:14.537Z,77.22
2023-05-01T00:41:14.505Z,77.01
2023-05-01T00:42:14.503Z,77.12
2023-05-01T00:43:14.613Z,77.32
2023-05-01T00:44:14.478Z,77.67
2023-05-01T00:45:14.462Z,78.08
2023-05-01T00:46:14.477Z,78.28
2023-05-01T00:47:15.408Z,78.38
2023-05-01T00:48:14.423Z,78.42
2023-05-01T00:49:15.398Z,78.72
2023-05-01T00:50:14.417Z,78.93
2023-05-01T00:51:14.380Z,79.13
2023-05-01T00:52:14.367Z,79.13
2023-05-01T00:53:14.385Z,79.34
2023-05-01T00:54:14.448Z,79.44
2023-05-01T00:55:14.360Z,79.38
2023-05-01T00:56:14.346Z,79.38
2023-05-01T00:57:14.340Z,79.68
2023-05-01T00:58:14.309Z,80.09
2023-05-01T00:59:14.292Z,80.40
2023-05-01T01:00:14.486Z,80.51
2023-05-01T01:01:14.287Z,80.71
2023-05-01T01:02:14.286Z,80.81
2023-05-01T01:03:14.247Z,80.91
2023-05-01T01:04:14.328Z,81.01
2023-05-01T01:05:14.226Z,80.91
2023-05-01T01:06:14.297Z,80.81
2023-05-01T01:07:14.215Z,80.81
2023-05-01T01:08:14.254Z,80.81
2023-05-01T01:09:14.188Z,81.01
2023-05-01T01:10:14.204Z,81.32
2023-05-01T01:11:14.157Z,81.43
2023-05-01T01:12:14.223Z,81.52
2023-05-01T01:13:15.105Z,81.52
2023-05-01T01:14:14.143Z,81.63
2023-05-01T01:15:14.120Z,81.73
2023-05-01T01:16:15.103Z,81.73
2023-05-01T01:17:14.183Z,81.84
2023-05-01T01:18:14.243Z,81.94
2023-05-01T01:19:14.096Z,81.84
2023-05-01T01:20:15.070Z,81.94
2023-05-01T01:21:14.043Z,82.04
2023-05-01T01:22:14.035Z,82.14
2023-05-01T01:23:14.014Z,82.24
2023-05-01T01:24:14.023Z,82.35
2023-05-01T01:25:14.028Z,82.45
2023-05-01T01:26:13.991Z,82.35
2023-05-01T01:27:13.983Z,82.45
2023-05-01T01:28:13.974Z,82.55
2023-05-01T01:29:14.008Z,82.62
2023-05-01T01:30:13.958Z,82.71
2023-05-01T01:31:14.039Z,82.62
2023-05-01T01:32:13.914Z,82.51
2023-05-01T01:33:13.916Z,82.51
2023-05-01T01:34:13.905Z,82.62
2023-05-01T01:35:13.921Z,82.71
2023-05-01T01:36:14.849Z,82.82
2023-05-01T01:37:13.865Z,83.03
2023-05-01T01:38:13.851Z,83.23
2023-05-01T01:39:13.846Z,83.44
2023-05-01T01:40:13.831Z,83.54
2023-05-01T01:41:13.855Z,83.74
2023-05-01T01:42:13.814Z,83.84
2023-05-01T01:43:13.823Z,83.95
2023-05-01T01:44:13.790Z,84.15
2023-05-01T01:45:13.781Z,84.36
2023-05-01T01:46:13.846Z,84.46
2023-05-01T01:47:13.765Z,84.66
2023-05-01T01:48:13.769Z,84.77
2023-05-01T01:49:13.735Z,84.87
2023-05-01T01:50:13.728Z,84.87
2023-05-01T01:51:13.722Z,84.97
2023-05-01T01:52:13.698Z,84.97
2023-05-01T01:53:13.711Z,84.97
2023-05-01T01:54:13.713Z,85.07
2023-05-01T01:55:13.684Z,85.07
2023-05-01T01:56:13.651Z,85.07
2023-05-01T01:57:14.637Z,85.17
2023-05-01T01:58:13.640Z,85.28
2023-05-01T01:59:13.616Z,85.17
2023-05-01T02:00:13.617Z,85.17
2023-05-01T02:01:14.667Z,85.17
2023-05-01T02:02:13.718Z,85.07
2023-05-01T02:03:13.731Z,85.17
2023-05-01T02:04:13.684Z,85.28
2023-05-01T02:05:13.604Z,85.28
2023-05-01T02:06:13.579Z,85.48
2023-05-01T02:07:13.538Z,85.48
2023-05-01T02:08:13.522Z,85.48
2023-05-01T02:09:13.506Z,85.48
2023-05-01T02:10:13.495Z,85.38
2023-05-01T02:11:13.525Z,85.38
2023-05-01T02:12:13.485Z,85.48
2023-05-01T02:13:13.499Z,85.48
2023-05-01T02:14:13.463Z,85.38
2023-05-01T02:15:13.457Z,85.38
2023-05-01T02:16:13.648Z,85.48
2023-05-01T02:17:13.804Z,85.48
2023-05-01T02:18:13.587Z,85.48
2023-05-01T02:19:13.421Z,85.48
2023-05-01T02:20:13.381Z,85.38
2023-05-01T02:21:13.384Z,85.42
2023-05-01T02:22:13.362Z,85.52
2023-05-01T02:23:13.385Z,85.63
2023-05-01T02:24:13.343Z,85.83
2023-05-01T02:25:13.339Z,85.93
2023-05-01T02:26:13.320Z,86.04
2023-05-01T02:27:13.349Z,86.14
2023-05-01T02:28:13.311Z,86.24
2023-05-01T02:29:13.292Z,86.34
2023-05-01T02:30:13.278Z,86.44
2023-05-01T02:31:13.272Z,86.55
2023-05-01T02:32:13.570Z,86.44
2023-05-01T02:33:13.281Z,86.44
2023-05-01T02:34:13.279Z,86.34
2023-05-01T02:35:13.230Z,86.34
2023-05-01T02:36:13.202Z,86.34
2023-05-01T02:37:14.059Z,86.44
2023-05-01T02:38:13.564Z,86.44
2023-05-01T02:39:13.176Z,86.44
2023-05-01T02:40:13.160Z,86.55
2023-05-01T02:41:13.156Z,86.75
2023-05-01T02:42:13.160Z,86.85
2023-05-01T02:43:13.173Z,86.75
2023-05-01T02:44:13.149Z,86.75
2023-05-01T02:45:13.128Z,86.65
2023-05-01T02:46:13.138Z,86.55
2023-05-01T02:47:13.130Z,86.55
2023-05-01T02:48:13.212Z,86.65
2023-05-01T02:49:13.086Z,86.79
2023-05-01T02:50:13.075Z,86.90
2023-05-01T02:51:13.076Z,86.99
2023-05-01T02:52:13.058Z,86.99
2023-05-01T02:53:13.056Z,86.99
2023-05-01T02:54:13.012Z,86.99
2023-05-01T02:55:13.319Z,86.99
2023-05-01T02:56:13.005Z,87.10
2023-05-01T02:57:13.025Z,87.10
2023-05-01T02:58:12.997Z,87.20
2023-05-01T02:59:12.959Z,87.20
2023-05-01T03:00:12.953Z,87.30
2023-05-01T03:01:13.001Z,87.41
2023-05-01T03:02:12.941Z,87.41
2023-05-01T03:03:12.996Z,87.30
2023-05-01T03:04:12.984Z,87.30
2023-05-01T03:05:12.913Z,87.41
2023-05-01T03:06:12.968Z,87.41
2023-05-01T03:07:12.888Z,87.30
2023-05-01T03:08:12.883Z,87.24
2023-05-01T03:09:12.897Z,87.24
2023-05-01T03:10:12.837Z,87.24
2023-05-01T03:11:12.820Z,87.34
2023-05-01T03:12:12.855Z,87.45
2023-05-01T03:13:14.341Z,87.55
2023-05-01T03:14:12.797Z,87.65
2023-05-01T03:15:13.579Z,87.76
2023-05-01T03:16:13.765Z,87.85
2023-05-01T03:17:13.735Z,87.85
2023-05-01T03:18:13.856Z,87.85
2023-05-01T03:19:12.741Z,87.85
2023-05-01T03:20:14.188Z,87.85
2023-05-01T03:21:12.800Z,87.85
2023-05-01T03:22:12.743Z,87.96
2023-05-01T03:23:12.700Z,87.96
2023-05-01T03:24:12.686Z,87.96
2023-05-01T03:25:12.686Z,88.06
2023-05-01T03:26:12.715Z,88.06
2023-05-01T03:27:12.680Z,88.06
2023-05-01T03:28:12.671Z,88.06
2023-05-01T03:29:12.710Z,87.96
2023-05-01T03:30:12.663Z,87.96
2023-05-01T03:31:13.525Z,87.96
2023-05-01T03:32:12.667Z,87.85
2023-05-01T03:33:12.675Z,87.85
2023-05-01T03:34:12.560Z,87.76
2023-05-01T03:35:12.574Z,87.76
2023-05-01T03:36:12.557Z,87.76
2023-05-01T03:37:12.557Z,87.65
2023-05-01T03:38:12.565Z,87.65
2023-05-01T03:39:12.526Z,87.55
2023-05-01T03:40:12.781Z,87.45
2023-05-01T03:41:12.547Z,87.55
2023-05-01T03:42:12.705Z,87.65
2023-05-01T03:43:12.471Z,87.76
2023-05-01T03:44:12.555Z,87.85
2023-05-01T03:45:13.241Z,87.85
2023-05-01T03:46:12.523Z,87.96
2023-05-01T03:47:13.876Z,87.96
2023-05-01T03:48:12.630Z,88.06
2023-05-01T03:49:13.908Z,88.06
2023-05-01T03:50:12.432Z,88.21
2023-05-01T03:51:12.616Z,88.31
2023-05-01T03:52:12.353Z,88.51
2023-05-01T03:53:13.819Z,88.62
2023-05-01T03:54:12.837Z,88.72
2023-05-01T03:55:12.353Z,88.82
2023-05-01T03:56:13.170Z,88.82
2023-05-01T03:57:12.310Z,88.92
2023-05-01T03:58:13.755Z,88.92
2023-05-01T03:59:13.744Z,88.92
2023-05-01T04:00:12.297Z,89.03
2023-05-01T04:01:12.311Z,89.13
2023-05-01T04:02:12.627Z,89.13
2023-05-01T04:03:12.624Z,89.23
2023-05-01T04:04:12.598Z,89.33
2023-05-01T04:05:12.278Z,89.43
2023-05-01T04:06:12.344Z,89.64
2023-05-01T04:07:12.228Z,89.64
2023-05-01T04:08:12.780Z,89.75
2023-05-01T04:09:12.652Z,89.84
2023-05-01T04:10:12.728Z,89.95
2023-05-01T04:11:12.189Z,89.95
2023-05-01T04:12:12.170Z,90.05
2023-05-01T04:13:12.164Z,90.09
2023-05-01T04:14:12.170Z,90.20
2023-05-01T04:15:15.353Z,90.30
2023-05-01T04:16:12.213Z,90.40
2023-05-01T04:17:12.184Z,90.50
2023-05-01T04:18:13.096Z,90.50
2023-05-01T04:19:12.098Z,90.61
2023-05-01T04:20:12.079Z,90.61
2023-05-01T04:21:13.517Z,90.71
2023-05-01T04:22:12.035Z,90.91
2023-05-01T04:23:13.008Z,91.02
2023-05-01T04:24:12.073Z,91.12
2023-05-01T04:25:12.862Z,91.22
2023-05-01T04:26:12.849Z,91.33
2023-05-01T04:27:11.994Z,91.33
2023-05-01T04:28:13.419Z,91.42
2023-05-01T04:29:13.414Z,91.53
2023-05-01T04:30:11.990Z,91.53
2023-05-01T04:31:12.041Z,91.53
2023-05-01T04:32:11.980Z,91.53
2023-05-01T04:33:12.058Z,91.63
2023-05-01T04:34:11.998Z,91.63
2023-05-01T04:35:13.356Z,91.63
2023-05-01T04:36:13.372Z,91.63
2023-05-01T04:37:11.942Z,91.63
2023-05-01T04:38:11.888Z,91.63
2023-05-01T04:39:13.312Z,91.63
2023-05-01T04:40:11.965Z,91.63
2023-05-01T04:41:12.780Z,91.74
2023-05-01T04:42:13.285Z,91.74
2023-05-01T04:43:12.775Z,91.69
2023-05-01T04:44:11.828Z,91.69
2023-05-01T04:45:11.837Z,91.69
2023-05-01T04:46:11.935Z,91.69
2023-05-01T04:47:11.890Z,91.59
2023-05-01T04:48:12.070Z,91.59
2023-05-01T04:49:11.756Z,91.59
2023-05-01T04:50:11.737Z,91.49
2023-05-01T04:51:13.747Z,91.49
2023-05-01T04:52:11.740Z,91.49
2023-05-01T04:53:13.665Z,91.49
2023-05-01T04:54:12.474Z,91.49
2023-05-01T04:55:13.632Z,91.49
2023-05-01T04:56:13.113Z,91.59
2023-05-01T04:57:11.699Z,91.59
2023-05-01T04:58:11.676Z,91.69
2023-05-01T04:59:12.608Z,91.69
2023-05-01T05:00:11.607Z,91.69
2023-05-01T05:01:11.729Z,91.69
2023-05-01T05:02:11.595Z,91.55
2023-05-01T05:03:11.679Z,91.55
2023-05-01T05:04:11.589Z,91.44
2023-05-01T05:05:11.581Z,91.44
2023-05-01T05:06:11.658Z,91.44
2023-05-01T05:07:11.997Z,91.44
2023-05-01T05:08:11.515Z,91.44
2023-05-01T05:09:11.522Z,91.44
2023-05-01T05:10:11.688Z,91.44
2023-05-01T05:11:12.070Z,91.40
2023-05-01T05:12:12.981Z,91.40
2023-05-01T05:13:11.501Z,91.30
2023-05-01T05:14:11.452Z,91.20
2023-05-01T05:15:12.035Z,91.09
2023-05-01T05:16:11.503Z,91.09
2023-05-01T05:17:12.274Z,90.99
2023-05-01T05:18:11.472Z,90.89
2023-05-01T05:19:11.489Z,90.79
2023-05-01T05:20:11.384Z,90.75
2023-05-01T05:21:11.419Z,90.64
2023-05-01T05:22:11.378Z,90.54
2023-05-01T05:23:11.368Z,90.44
2023-05-01T05:24:11.537Z,90.34
2023-05-01T05:25:11.501Z,90.13
2023-05-01T05:26:11.319Z,89.89
2023-05-01T05:27:11.349Z,89.68
2023-05-01T05:28:11.302Z,89.47
2023-05-01T05:29:11.297Z,89.27
2023-05-01T05:30:11.319Z,89.17
2023-05-01T05:31:11.307Z,88.96
2023-05-01T05:32:11.317Z,88.62
2023-05-01T05:33:11.318Z,88.20
2023-05-01T05:34:11.308Z,87.70
2023-05-01T05:35:11.390Z,87.38
2023-05-01T05:36:11.208Z,87.29
2023-05-01T05:37:11.243Z,87.14
2023-05-01T05:38:11.195Z,86.94
2023-05-01T05:39:11.206Z,86.63
2023-05-01T05:40:11.183Z,86.32
2023-05-01T05:41:11.171Z,86.22
2023-05-01T05:42:11.145Z,86.32
2023-05-01T05:43:12.610Z,86.29
2023-05-01T05:44:11.167Z,85.97
2023-05-01T05:45:11.155Z,85.88
2023-05-01T05:46:11.169Z,85.88
2023-05-01T05:47:11.096Z,85.57
2023-05-01T05:48:11.536Z,85.16
2023-05-01T05:49:11.072Z,84.91
2023-05-01T05:50:11.091Z,84.30
2023-05-01T05:51:11.057Z,84.00
2023-05-01T05:52:11.116Z,83.79
2023-05-01T05:53:13.036Z,83.28
2023-05-01T05:54:11.092Z,83.04
2023-05-01T05:55:10.989Z,83.04
2023-05-01T05:56:11.030Z,82.63
2023-05-01T05:57:10.984Z,82.01
2023-05-01T05:58:10.964Z,81.51
2023-05-01T05:59:10.973Z,81.30
2023-05-01T06:00:10.954Z,81.46
2023-05-01T06:01:10.940Z,81.26
2023-05-01T06:02:10.974Z,81.16
2023-05-01T06:03:11.007Z,81.05
2023-05-01T06:04:11.092Z,80.82
2023-05-01T06:05:12.933Z,80.51
2023-05-01T06:06:11.942Z,80.30
2023-05-01T06:07:10.905Z,80.10
2023-05-01T06:08:11.033Z,79.90
2023-05-01T06:09:10.854Z,79.90
2023-05-01T06:10:10.865Z,79.66
2023-05-01T06:11:10.837Z,79.45
2023-05-01T06:12:10.815Z,79.25
2023-05-01T06:13:13.952Z,79.04
2023-05-01T06:14:10.799Z,79.04
2023-05-01T06:15:12.748Z,79.11
2023-05-01T06:16:11.155Z,78.80
2023-05-01T06:17:10.757Z,78.50
2023-05-01T06:18:10.793Z,78.70
2023-05-01T06:19:11.778Z,78.39
2023-05-01T06:20:10.847Z,77.75
2023-05-01T06:21:10.713Z,77.44
2023-05-01T06:22:10.714Z,77.55
2023-05-01T06:23:10.697Z,77.64
2023-05-01T06:24:10.701Z,77.61
2023-05-01T06:25:10.721Z,77.30
2023-05-01T06:26:10.681Z,76.90
2023-05-01T06:27:11.044Z,76.69
2023-05-01T06:28:10.643Z,76.49
2023-05-01T06:29:10.624Z,75.98
2023-05-01T06:30:10.669Z,75.13
2023-05-01T06:31:11.179Z,74.82
2023-05-01T06:32:10.660Z,74.62
2023-05-01T06:33:10.610Z,74.41
2023-05-01T06:34:10.601Z,74.32
2023-05-01T06:35:10.614Z,74.11
2023-05-01T06:36:10.603Z,73.77
2023-05-01T06:37:10.572Z,73.87
2023-05-01T06:38:10.597Z,73.77
2023-05-01T06:39:10.520Z,73.97
2023-05-01T06:40:10.512Z,73.47
2023-05-01T06:41:10.496Z,72.75
2023-05-01T06:42:10.506Z,72.45
2023-05-01T06:43:10.484Z,72.31
2023-05-01T06:44:11.924Z,72.21
2023-05-01T06:45:10.541Z,72.21
2023-05-01T06:46:10.600Z,72.31
2023-05-01T06:47:11.431Z,72.31
2023-05-01T06:48:10.486Z,72.38
2023-05-01T06:49:10.395Z,72.38
2023-05-01T06:50:10.466Z,72.48
2023-05-01T06:51:10.387Z,71.97
2023-05-01T06:52:12.331Z,71.06
2023-05-01T06:53:10.355Z,70.75
2023-05-01T06:54:10.351Z,70.62
2023-05-01T06:55:11.397Z,70.42
2023-05-01T06:56:11.186Z,70.11
2023-05-01T06:57:10.316Z,69.91
2023-05-01T06:58:22.834Z,69.91
2023-05-01T06:59:11.294Z,69.78
2023-05-01T07:00:11.762Z,69.17
2023-05-01T07:01:11.280Z,68.86
2023-05-01T07:02:10.358Z,68.45
2023-05-01T07:03:10.265Z,67.84
2023-05-01T07:04:10.650Z,67.30
2023-05-01T07:05:10.425Z,66.90
2023-05-01T07:06:10.250Z,65.88
2023-05-01T07:07:11.190Z,65.68
2023-05-01T07:08:10.207Z,65.48
2023-05-01T07:09:10.370Z,65.48
2023-05-01T07:10:10.653Z,65.34
2023-05-01T07:11:10.170Z,65.04
2023-05-01T07:12:10.280Z,64.73
2023-05-01T07:13:10.135Z,64.53
2023-05-01T07:14:10.216Z,64.33
2023-05-01T07:15:11.587Z,63.62
2023-05-01T07:16:10.176Z,63.52
2023-05-01T07:17:10.108Z,63.18
2023-05-01T07:18:10.152Z,63.29
2023-05-01T07:19:10.261Z,63.49
2023-05-01T07:20:10.130Z,63.08
2023-05-01T07:21:10.840Z,62.98
2023-05-01T07:22:10.049Z,63.29
2023-05-01T07:23:11.498Z,63.69
2023-05-01T07:24:10.035Z,63.96
2023-05-01T07:25:10.064Z,64.07
2023-05-01T07:26:11.547Z,63.86
2023-05-01T07:27:09.991Z,63.66
2023-05-01T07:28:09.994Z,63.76
2023-05-01T07:29:10.029Z,63.86
2023-05-01T07:30:10.116Z,63.76
2023-05-01T07:31:09.954Z,63.86
2023-05-01T07:32:10.025Z,63.73
2023-05-01T07:33:09.962Z,63.73
2023-05-01T07:34:09.946Z,63.43
2023-05-01T07:35:10.190Z,63.23
2023-05-01T07:36:09.917Z,62.92
2023-05-01T07:37:09.968Z,62.41
2023-05-01T07:38:10.681Z,62.21
2023-05-01T07:39:09.904Z,62.41
2023-05-01T07:40:09.871Z,62.52
2023-05-01T07:41:09.846Z,62.72
2023-05-01T07:42:09.854Z,63.02
2023-05-01T07:43:09.825Z,62.82
2023-05-01T07:44:09.803Z,62.59
2023-05-01T07:45:09.792Z,62.89
2023-05-01T07:46:09.848Z,62.69
2023-05-01T07:47:09.796Z,62.69
2023-05-01T07:48:10.083Z,62.59
2023-05-01T07:49:09.743Z,62.79
2023-05-01T07:50:09.772Z,62.59
2023-05-01T07:51:11.186Z,62.29
2023-05-01T07:52:09.723Z,62.29
2023-05-01T07:53:09.721Z,62.18
2023-05-01T07:54:09.717Z,61.88
2023-05-01T07:55:09.693Z,61.37
2023-05-01T07:56:09.660Z,61.47
2023-05-01T07:57:11.167Z,61.35
2023-05-01T07:58:09.666Z,61.14
2023-05-01T07:59:09.771Z,61.04
2023-05-01T08:00:09.650Z,61.14
2023-05-01T08:01:09.618Z,61.24
2023-05-01T08:02:09.623Z,61.44
2023-05-01T08:03:09.737Z,61.85
2023-05-01T08:04:09.730Z,61.75
2023-05-01T08:05:09.571Z,62.26
2023-05-01T08:06:09.600Z,62.43
2023-05-01T08:07:09.567Z,62.43
2023-05-01T08:08:09.551Z,62.53
2023-05-01T08:09:09.518Z,62.73
2023-05-01T08:10:09.546Z,62.43
2023-05-01T08:11:09.498Z,62.33
2023-05-01T08:12:09.505Z,61.32
2023-05-01T08:13:09.833Z,61.08
2023-05-01T08:14:10.448Z,60.68
2023-05-01T08:15:09.446Z,60.88
2023-05-01T08:16:11.015Z,60.88
2023-05-01T08:17:09.460Z,60.38
2023-05-01T08:18:09.546Z,60.48
2023-05-01T08:19:09.528Z,60.48
2023-05-01T08:20:09.422Z,60.78
2023-05-01T08:21:09.462Z,60.78
2023-05-01T08:22:09.404Z,60.27
2023-05-01T08:23:09.615Z,59.87
2023-05-01T08:24:09.408Z,59.87
2023-05-01T08:25:09.373Z,59.97
2023-05-01T08:26:09.333Z,60.07
2023-05-01T08:27:09.327Z,60.27
2023-05-01T08:28:10.822Z,60.48
2023-05-01T08:29:09.736Z,60.58
2023-05-01T08:30:09.338Z,60.65
2023-05-01T08:31:09.393Z,60.65
2023-05-01T08:32:09.269Z,60.85
2023-05-01T08:33:09.278Z,60.75
2023-05-01T08:34:09.262Z,60.45
2023-05-01T08:35:09.231Z,60.65
2023-05-01T08:36:09.245Z,60.35
2023-05-01T08:37:09.246Z,60.65
2023-05-01T08:38:09.204Z,60.65
2023-05-01T08:39:09.194Z,59.84
2023-05-01T08:40:09.259Z,59.94
2023-05-01T08:41:09.975Z,60.05
2023-05-01T08:42:09.156Z,60.25
2023-05-01T08:43:10.124Z,60.25
2023-05-01T08:44:09.162Z,60.25
2023-05-01T08:45:09.122Z,60.14
2023-05-01T08:46:09.183Z,59.84
2023-05-01T08:47:09.174Z,59.84
2023-05-01T08:48:09.114Z,59.64
2023-05-01T08:49:09.073Z,59.84
2023-05-01T08:50:09.139Z,60.14
2023-05-01T08:51:09.051Z,60.35
2023-05-01T08:52:09.063Z,60.35
2023-05-01T08:53:09.024Z,60.55
2023-05-01T08:54:09.069Z,60.65
2023-05-01T08:55:08.987Z,60.65
2023-05-01T08:56:08.995Z,59.81
2023-05-01T08:57:10.260Z,59.51
2023-05-01T08:58:08.987Z,59.61
2023-05-01T08:59:10.009Z,59.61
2023-05-01T09:00:08.968Z,59.41
2023-05-01T09:01:09.008Z,59.58
2023-05-01T09:02:09.016Z,59.69
2023-05-01T09:03:09.032Z,59.69
2023-05-01T09:04:08.965Z,59.48
2023-05-01T09:05:08.884Z,59.48
2023-05-01T09:06:08.930Z,59.48
2023-05-01T09:07:08.920Z,59.28
2023-05-01T09:08:08.877Z,59.25
2023-05-01T09:09:08.963Z,59.15
2023-05-01T09:10:08.853Z,59.05
2023-05-01T09:11:08.819Z,59.05
2023-05-01T09:12:08.810Z,59.15
2023-05-01T09:13:08.810Z,59.35
2023-05-01T09:14:08.805Z,58.54
2023-05-01T09:15:08.803Z,57.84
2023-05-01T09:16:08.849Z,57.84
2023-05-01T09:17:08.987Z,58.25
2023-05-01T09:18:09.121Z,58.65
2023-05-01T09:19:08.780Z,58.75
2023-05-01T09:20:08.742Z,58.85
2023-05-01T09:21:08.746Z,58.95
2023-05-01T09:22:08.750Z,59.12
2023-05-01T09:23:08.711Z,59.12
2023-05-01T09:24:08.722Z,59.12
2023-05-01T09:25:08.682Z,59.00
2023-05-01T09:26:08.688Z,58.59
2023-05-01T09:27:08.657Z,58.69
2023-05-01T09:28:08.679Z,58.49
2023-05-01T09:29:08.630Z,58.16
2023-05-01T09:30:10.097Z,57.65
2023-05-01T09:31:09.575Z,57.56
2023-05-01T09:32:08.686Z,57.86
2023-05-01T09:33:08.612Z,57.15
2023-05-01T09:34:08.635Z,57.12
2023-05-01T09:35:08.550Z,57.03
2023-05-01T09:36:08.567Z,56.82
2023-05-01T09:37:08.535Z,56.72
2023-05-01T09:38:08.557Z,56.82
2023-05-01T09:39:08.529Z,56.80
2023-05-01T09:40:08.617Z,57.60
2023-05-01T09:41:08.511Z,57.50
2023-05-01T09:42:08.489Z,57.00
2023-05-01T09:43:09.951Z,57.00
2023-05-01T09:44:08.491Z,56.87
2023-05-01T09:45:08.459Z,55.96
2023-05-01T09:46:08.544Z,53.75
2023-05-01T09:47:08.424Z,53.17
2023-05-01T09:48:08.532Z,53.47
2023-05-01T09:49:08.415Z,54.38
2023-05-01T09:50:08.396Z,54.88
2023-05-01T09:51:08.380Z,55.08
2023-05-01T09:52:08.412Z,54.88
2023-05-01T09:53:08.381Z,55.19
2023-05-01T09:54:08.370Z,55.59
2023-05-01T09:55:08.341Z,55.49
2023-05-01T09:56:08.357Z,56.09
2023-05-01T09:57:08.317Z,56.29
2023-05-01T09:58:08.562Z,56.27
2023-05-01T09:59:08.297Z,55.76
2023-05-01T10:00:08.649Z,55.76
2023-05-01T10:01:08.270Z,55.83
2023-05-01T10:02:08.338Z,55.74
2023-05-01T10:03:08.660Z,55.63
2023-05-01T10:04:08.519Z,54.93
2023-05-01T10:05:08.235Z,55.03
2023-05-01T10:06:08.301Z,55.03
2023-05-01T10:07:09.225Z,54.83
2023-05-01T10:08:08.195Z,55.23
2023-05-01T10:09:08.217Z,55.13
2023-05-01T10:10:08.174Z,55.03
2023-05-01T10:11:08.200Z,55.23
2023-05-01T10:12:08.171Z,54.93
2023-05-01T10:13:08.152Z,54.53
2023-05-01T10:14:08.141Z,54.35
2023-05-01T10:15:23.334Z,54.75
2023-05-01T10:16:09.138Z,55.16
2023-05-01T10:17:08.211Z,55.49
2023-05-01T10:18:08.160Z,55.29
2023-05-01T10:19:08.068Z,55.49
2023-05-01T10:20:08.057Z,55.69
2023-05-01T10:21:08.081Z,56.09
2023-05-01T10:22:08.095Z,55.87
2023-05-01T10:23:08.086Z,55.76
2023-05-01T10:24:08.036Z,55.96
2023-05-01T10:25:08.009Z,55.87
2023-05-01T10:26:07.985Z,55.76
2023-05-01T10:27:07.990Z,55.74
2023-05-01T10:28:07.983Z,55.54
2023-05-01T10:29:07.990Z,55.51
2023-05-01T10:30:08.144Z,56.11
2023-05-01T10:31:07.963Z,55.91
2023-05-01T10:32:07.955Z,55.48
2023-05-01T10:33:08.060Z,54.58
2023-05-01T10:34:07.951Z,54.58
2023-05-01T10:35:07.909Z,54.88
2023-05-01T10:36:07.898Z,55.26
2023-05-01T10:37:07.892Z,55.46
2023-05-01T10:38:08.800Z,54.75
2023-05-01T10:39:07.868Z,54.63
2023-05-01T10:40:07.881Z,55.03
2023-05-01T10:41:07.988Z,55.73
2023-05-01T10:42:08.055Z,55.80
2023-05-01T10:43:07.802Z,56.01
2023-05-01T10:44:07.940Z,55.88
2023-05-01T10:45:07.830Z,55.78
2023-05-01T10:46:07.835Z,54.17
2023-05-01T10:47:07.778Z,53.97
2023-05-01T10:48:07.916Z,53.97
2023-05-01T10:49:07.758Z,53.37
2023-05-01T10:50:07.773Z,53.27
2023-05-01T10:51:07.774Z,54.17
2023-05-01T10:52:07.715Z,54.68
2023-05-01T10:53:07.994Z,54.77
2023-05-01T10:54:07.695Z,54.15
2023-05-01T10:55:07.694Z,53.57
2023-05-01T10:56:07.714Z,53.87
2023-05-01T10:57:07.810Z,54.38
2023-05-01T10:58:07.710Z,54.68
2023-05-01T10:59:07.674Z,53.67
2023-05-01T11:00:07.687Z,54.07
2023-05-01T11:01:07.620Z,54.40
2023-05-01T11:02:07.731Z,54.40
2023-05-01T11:03:07.673Z,54.50
2023-05-01T11:04:07.589Z,54.50
2023-05-01T11:05:07.680Z,54.70
2023-05-01T11:06:07.672Z,55.18
2023-05-01T11:07:07.820Z,54.88
2023-05-01T11:08:07.642Z,55.38
2023-05-01T11:09:07.515Z,55.28
2023-05-01T11:10:07.512Z,55.08
2023-05-01T11:11:07.500Z,55.28
2023-05-01T11:12:07.506Z,54.45
2023-05-01T11:13:07.491Z,53.87
2023-05-01T11:14:07.501Z,54.05
2023-05-01T11:15:07.478Z,54.25
2023-05-01T11:16:07.493Z,53.55
2023-05-01T11:17:07.457Z,54.05
2023-05-01T11:18:07.643Z,53.64
2023-05-01T11:19:07.438Z,54.15
2023-05-01T11:20:07.655Z,54.75
2023-05-01T11:21:07.398Z,53.25
2023-05-01T11:22:07.383Z,53.25
2023-05-01T11:23:07.404Z,53.55
2023-05-01T11:24:07.649Z,53.62
2023-05-01T11:25:07.681Z,53.52
2023-05-01T11:26:07.345Z,53.82
2023-05-01T11:27:07.327Z,53.42
2023-05-01T11:28:07.307Z,53.12
2023-05-01T11:29:07.314Z,52.52
2023-05-01T11:30:07.330Z,52.22
2023-05-01T11:31:07.385Z,51.32
2023-05-01T11:32:07.310Z,51.42
2023-05-01T11:33:10.147Z,50.81
2023-05-01T11:34:07.719Z,50.51
2023-05-01T11:35:07.265Z,51.01
2023-05-01T11:36:07.441Z,51.51
2023-05-01T11:37:07.214Z,52.01
2023-05-01T11:38:08.684Z,52.22
2023-05-01T11:39:07.432Z,52.80
2023-05-01T11:40:07.207Z,52.69
2023-05-01T11:41:08.660Z,52.39
2023-05-01T11:42:07.182Z,52.49
2023-05-01T11:43:08.630Z,52.69
2023-05-01T11:44:07.186Z,52.29
2023-05-01T11:45:07.141Z,50.19
2023-05-01T11:46:07.291Z,48.99
2023-05-01T11:47:07.208Z,49.08
2023-05-01T11:48:07.259Z,49.29
2023-05-01T11:49:07.313Z,49.79
2023-05-01T11:50:07.090Z,49.08
2023-05-01T11:51:07.054Z,49.58
2023-05-01T11:52:08.527Z,49.99
2023-05-01T11:53:07.044Z,50.09
2023-05-01T11:54:08.491Z,49.58
2023-05-01T11:55:08.990Z,49.49
2023-05-01T11:56:16.229Z,49.08
2023-05-01T11:57:08.024Z,49.19
2023-05-01T11:58:08.476Z,49.89
2023-05-01T11:59:06.991Z,49.99
2023-05-01T12:00:06.965Z,49.57
2023-05-01T12:01:08.066Z,48.26
2023-05-01T12:02:07.000Z,48.07
2023-05-01T12:03:07.237Z,47.36
2023-05-01T12:04:07.744Z,48.26
2023-05-01T12:05:06.922Z,48.86
2023-05-01T12:06:07.773Z,47.46
2023-05-01T12:07:07.250Z,47.86
2023-05-01T12:08:08.346Z,48.36
2023-05-01T12:09:07.077Z,48.36
2023-05-01T12:10:06.948Z,48.64
2023-05-01T12:11:06.997Z,47.84
2023-05-01T12:12:06.867Z,46.94
2023-05-01T12:13:06.842Z,46.94
2023-05-01T12:14:06.814Z,46.72
2023-05-01T12:15:08.777Z,46.72
2023-05-01T12:16:06.805Z,46.12
2023-05-01T12:17:07.201Z,45.29
2023-05-01T12:18:06.954Z,45.39
2023-05-01T12:19:07.800Z,45.09
2023-05-01T12:20:06.814Z,44.49
2023-05-01T12:21:06.734Z,43.99
2023-05-01T12:22:06.731Z,43.82
2023-05-01T12:23:07.137Z,44.51
2023-05-01T12:24:07.003Z,45.01
2023-05-01T12:25:07.658Z,44.84
2023-05-01T12:26:08.124Z,42.24
2023-05-01T12:27:07.487Z,41.96
2023-05-01T12:28:08.112Z,42.25
2023-05-01T12:29:06.707Z,43.66
2023-05-01T12:30:06.700Z,45.66
2023-05-01T12:31:08.174Z,46.16
2023-05-01T12:32:06.802Z,46.06
2023-05-01T12:33:06.629Z,46.76
2023-05-01T12:34:06.617Z,47.24
2023-05-01T12:35:07.560Z,47.36
2023-05-01T12:36:06.582Z,47.66
2023-05-01T12:37:08.020Z,47.74
2023-05-01T12:38:06.743Z,46.74
2023-05-01T12:39:06.575Z,46.14
2023-05-01T12:40:06.563Z,46.34
2023-05-01T12:41:06.508Z,46.84
2023-05-01T12:42:07.326Z,47.30
2023-05-01T12:43:06.576Z,46.37
2023-05-01T12:44:07.437Z,45.65
2023-05-01T12:45:08.441Z,45.51
2023-05-01T12:46:07.432Z,45.39
2023-05-01T12:47:08.433Z,45.56
2023-05-01T12:48:07.070Z,45.06
2023-05-01T12:49:06.456Z,44.65
2023-05-01T12:50:06.480Z,43.75
2023-05-01T12:51:06.406Z,43.25
2023-05-01T12:52:06.422Z,43.77